Etusivu
METAR-TAF:

METAR-TAF

Lentoasemat :

Charleroi, Belgia

Leveyspiiri: 50-28N, Pituuspiiri: 004-27E, korkeus merenpinnasta: 187 m

Tämänhetkinen sää

Tämä raportti tehtiin 28 minuuttia sitten, kello 00.20 UTC
Tuuli 5 kn etelästä/lounaasta
Lämpötila 5°C
Kosteus 81%
Ilmanpaine 1022 hPa
Näkyvyys 10 km tai enemmän
ei pilviä alle 1500 m:ssä eikä cumulonimbus-pilviä

METAR: EBCI 200020Z 20005KT CAVOK 05/02 Q1022 NOSIG

Aika: 01:48 (00:48 UTC)

Sääennuste

Tämä raportti tehtiin 1 tunti ja 48 minuuttia sitten, kello 23.00 UTC
Ennuste voimassa 20. päivästä klo 00 UTC - 21. päivään klo 06 UTC
Tuuli 6 kn etelästä/lounaasta
Näkyvyys 10 km tai enemmän
Muutamia pilviä 3000 ft:n korkeudessa
Todennäköisyys 30% :
Ajoittain
20. päivästä klo 05 UTC - 20. päivään klo 08 UTC
Hajonneita pilviä 700 ft:n korkeudessa

TAF: EBCI 192300Z 2000/2106 21006KT 9999 FEW030 PROB30 TEMPO 2005/2008 BKN007

Säähavainnot ja -ennusteet yli 4000 lentoasemalta (METAR- ja TAF-raportit).

Käytössä olevat sääasemat on merkitty karttaan keltaisilla ja punaisilla pisteillä.

Aseta hiiri pisteen päälle nähdäksesi sääaseman nimen.

Klikkaa sitten nähdäksesi säähavainnot ja -ennusteet.

Kartan vaihtaminen: klikkaa mustalla rastilla varustettuja vihreitä pisteitä, niin voit zoomata sisään; viivalla varustettua vihreää pistettä, niin voit zoomata ulos tai vihreitä nuolia, niin pääset viereisille kartoille.


METAR-TAF: